• Join FlightAware (Why Join?)
  • Login
  • US Flag 
09:08AM EDT


 

Airport Tracker/Info


-or-


 

Live Flight TrackerFlight Track Log ✈ WIS100 ✈ 12-Jul-2013 ✈ KPTK - KOSH

Flight Track Log - Related Links

Times and Time Zones

All times are in EDT time to prevent confusion due to time zone crossing. See the WIS100 flight status page for this flight to view local times or setup timezone preferences in your user account.

Time Position Orientation Groundspeed Altitude Reporting Facility
EDT Latitude Longitude Course Direction KTS MPH feet Rate Location/Type
10:07PM 42.9528 -83.5817 162° South 190 219 4,900  Level Cleveland Center
10:08PM 42.8889 -83.5531 162° South 183 211 4,900 -600 Level Cleveland Center
10:09PM 42.8289 -83.5275 163° South 207 238 3,500 -1,200 Descending Cleveland Center
10:10PM 42.7878 -83.5086 161° South 200 230 2,700 -780 Descending Cleveland Center
10:11PM 42.7383 -83.4864 162° South 182 209 2,100 -360 Descending Cleveland Center
10:12PM 42.6928 -83.4758 170° South 129 148 2,000 -420 Descending Cleveland Center
10:13PM 42.6661 -83.4522 147° Southeast 117 135 1,300  Descending Cleveland Center
10:15PM 42.6875 -83.5349 289° West  Level FlightAware Approximate
10:22PM 42.8185 -83.9523 290° West  Level FlightAware Approximate
10:23PM 42.8348 -84.0135 290° West  Level FlightAware Approximate
10:24PM 42.8511 -84.0747 290° West  Level FlightAware Approximate
10:25PM 42.8674 -84.1359 290° West  Level FlightAware Approximate
10:26PM 42.8839 -84.1970 290° West  Level FlightAware Approximate
10:27PM 42.9005 -84.2581 290° West  Level FlightAware Approximate
10:28PM 42.9170 -84.3193 290° West  Level FlightAware Approximate
10:29PM 42.9335 -84.3805 290° West  Level FlightAware Approximate
10:29PM 42.6661 -83.3758 93° East 95 109 2,900  Level Cleveland Center
10:30PM 42.9499 -84.4417 290° West  Level FlightAware Approximate
10:30PM 42.6972 -83.3772 358° North 120 138 4,200  Level Cleveland Center
10:31PM 42.9663 -84.5029 290° West  Level FlightAware Approximate
10:31PM 42.7261 -83.3956 335° Northwest 115 132 5,400  Level Cleveland Center
10:32PM 42.9827 -84.5642 290° West  Level FlightAware Approximate
10:33PM 42.9993 -84.6254 290° West  Level FlightAware Approximate
10:33PM 42.7170 -83.4615 259° West  Level FlightAware Approximate
10:34PM 43.0158 -84.6866 290° West  Level FlightAware Approximate
10:40PM 42.8339 -83.8880 290° West  Level Estimated
10:41PM 42.8425 -83.9520 280° West  Level FlightAware Approximate
10:42PM 42.8511 -84.0161 280° West  Level FlightAware Approximate
10:43PM 42.8596 -84.0802 280° West  Level FlightAware Approximate
10:44PM 42.8764 -84.1411 290° West  Level Estimated
10:45PM 42.8920 -84.2027 289° West  Level FlightAware Approximate
10:46PM 42.9076 -84.2643 289° West  Level FlightAware Approximate
10:47PM 42.9231 -84.3260 289° West  Level FlightAware Approximate
10:48PM 42.9386 -84.3876 289° West  Level FlightAware Approximate
10:49PM 42.9540 -84.4493 289° West  Level FlightAware Approximate
10:50PM 42.9695 -84.5111 289° West  Level FlightAware Approximate
10:50PM 43.1131 -84.5922 290° West 195 224 6,000  Level Chicago Center
10:51PM 42.9861 -84.5722 290° West  Level Estimated
10:51PM 43.1306 -84.6625 289° West 197 227 6,000  Level Chicago Center
10:52PM 43.0026 -84.6335 290° West  Level FlightAware Approximate
10:52PM 43.1467 -84.7308 288° West 193 222 6,000  Level Chicago Center
10:53PM 43.0190 -84.6948 290° West  Level FlightAware Approximate
10:53PM 43.1633 -84.8017 288° West 194 223 6,000  Level Chicago Center
10:54PM 43.0353 -84.7561 290° West  Level FlightAware Approximate
10:54PM 43.1792 -84.8722 287° West 195 224 6,000  Level Chicago Center
10:55PM 43.0517 -84.8175 290° West  Level FlightAware Approximate
10:55PM 43.1964 -84.9414 289° West 193 222 6,000  Level Chicago Center
10:56PM 43.2131 -85.0111 288° West 193 222 6,000  Level Chicago Center
10:57PM 43.2331 -85.0794 292° West 194 223 6,000  Level Chicago Center
10:58PM 43.2492 -85.1511 287° West 195 224 6,000  Level Chicago Center
10:59PM 43.2669 -85.2350 286° West 193 222 6,000  Level Chicago Center
11:00PM 43.2842 -85.3044 289° West 194 223 6,000  Level Chicago Center
11:01PM 43.3025 -85.3728 290° West 193 222 6,000  Level Chicago Center
11:02PM 43.3211 -85.4422 290° West 195 224 6,000  Level Chicago Center
11:03PM 43.3428 -85.5108 293° West 197 227 6,000  Level Chicago Center
11:04PM 43.3575 -85.5806 286° West 193 222 6,000  Level Chicago Center
11:05PM 43.3719 -85.6517 286° West 194 223 6,000  Level Chicago Center
11:06PM 43.3903 -85.7214 290° West 195 224 6,000  Level Chicago Center
11:07PM 43.4092 -85.7922 290° West 197 227 6,000  Level Chicago Center
11:08PM 43.4267 -85.8778 286° West 197 227 6,000  Level Chicago Center
11:09PM 43.4414 -85.9486 286° West 194 223 6,000  Level Chicago Center
11:10PM 43.4564 -86.0200 286° West 196 226 6,000  Level Chicago Center
11:11PM 43.4739 -86.0900 289° West 195 224 6,000  Level Chicago Center
11:12PM 43.4892 -86.1578 287° West 189 217 6,000  Level Chicago Center
11:13PM 43.5056 -86.2247 289° West 185 213 6,000  Level Chicago Center
11:14PM 43.5214 -86.2936 288° West 189 217 6,000  Level Chicago Center
11:15PM 43.5350 -86.3625 285° West 187 215 6,000  Level Chicago Center
11:16PM 43.5486 -86.4319 285° West 188 216 6,000  Level Chicago Center
11:17PM 43.5656 -86.5131 286° West 185 213 6,000  Level Chicago Center
11:18PM 43.5811 -86.5800 288° West 184 212 6,000  Level Chicago Center
11:19PM 43.5969 -86.6494 287° West 189 217 6,000  Level Chicago Center
11:21PM 43.6147 -86.7183 290° West 189 217 6,000  Level Chicago Center
11:22PM 43.6261 -86.7869 283° West 187 215 6,000  Level Chicago Center
11:23PM 43.6364 -86.8597 281° West 189 217 6,000  Level Chicago Center
11:24PM 43.6478 -86.9308 283° West 190 219 6,000  Level Chicago Center
11:25PM 43.6619 -87.0008 286° West 191 220 6,000  Level Chicago Center
11:26PM 43.6800 -87.0681 290° West 189 217 6,000  Level Chicago Center
11:27PM 43.6972 -87.1375 289° West 192 221 6,000  Level Chicago Center
11:28PM 43.7192 -87.2219 290° West 194 223 6,000  Level Chicago Center
11:29PM 43.7394 -87.2894 293° West 192 221 6,000  Level Chicago Center
11:30PM 43.7558 -87.3644 287° West 192 221 6,000  Level Chicago Center
11:31PM 43.7692 -87.4361 284° West 191 220 6,000  Level Chicago Center
11:32PM 43.7806 -87.5083 282° West 192 221 6,000  Level Chicago Center
11:33PM 43.7928 -87.5792 283° West 191 220 6,000  Level Chicago Center
11:34PM 43.8081 -87.6503 287° West 192 221 6,000  Level Chicago Center
11:35PM 43.8269 -87.7192 291° West 190 219 6,000  Level Chicago Center
11:36PM 43.8442 -87.7892 289° West 191 220 6,000  Level Chicago Center
11:37PM 43.8589 -87.8592 286° West 191 220 6,000  Level Chicago Center
11:38PM 43.8750 -87.9269 288° West 188 216 6,000  Level Chicago Center
11:39PM 43.8936 -88.0075 288° West 188 216 6,000  Level Chicago Center
11:40PM 43.9092 -88.0747 288° West 187 215 6,000 -240 Level Chicago Center
11:41PM 43.9247 -88.1439 287° West 187 215 5,600 -600 Descending Chicago Center
11:42PM 43.9431 -88.2158 290° West 190 219 4,800 -840 Descending Chicago Center
11:43PM 43.9614 -88.2914 289° West 199 229 3,900 -720 Descending Chicago Center
11:44PM 43.9772 -88.3678 286° West 201 231 3,400 -540 Descending Chicago Center